Time;durP1;ratioP1;P1;durP2;ratioP2;P2;SDS_P1;SDS_P2;PMS_P1;PMS_P2;Temp;Humidity;BMP_temperature;BMP_pressure;BME280_temperature;BME280_humidity;BME280_pressure;Samples;Min_cycle;Max_cycle;Signal;HPM_P1;HPM_P2
2022/09/03 00:00:10;;;;;;;1.02;0.95;;;22.90;62.30;;;;;;5030334;28;20208;-70
2022/09/03 00:03:03;;;;;;;1.45;1.02;;;22.90;62.40;;;;;;5015551;28;20187;-70
2022/09/03 00:06:16;;;;;;;1.75;1.40;;;22.90;62.40;;;;;;5014690;28;20180;-70
2022/09/03 00:08:58;;;;;;;1.13;1.00;;;22.90;62.40;;;;;;5013973;28;20640;-70
2022/09/03 00:12:03;;;;;;;1.48;1.38;;;22.90;63.20;;;;;;5013565;28;20216;-70
2022/09/03 00:15:00;;;;;;;1.10;1.00;;;22.90;62.40;;;;;;5013371;28;20180;-70
2022/09/03 00:17:43;;;;;;;1.30;1.08;;;22.90;62.40;;;;;;5014069;28;20194;-70
2022/09/03 00:20:20;;;;;;;1.40;1.30;;;22.90;62.40;;;;;;5030774;28;20215;-70
2022/09/03 00:22:51;;;;;;;1.42;1.23;;;22.90;62.50;;;;;;5032199;28;20187;-70
2022/09/03 00:25:34;;;;;;;1.27;1.17;;;22.90;62.50;;;;;;5015428;28;20184;-71
2022/09/03 00:28:08;;;;;;;1.38;1.27;;;22.90;62.40;;;;;;5013583;28;20632;-70
2022/09/03 00:30:34;;;;;;;1.42;1.33;;;22.80;62.30;;;;;;5013312;28;20223;-70
2022/09/03 00:33:08;;;;;;;1.27;1.23;;;22.90;62.50;;;;;;5024116;28;20237;-71
2022/09/03 00:36:00;;;;;;;1.30;1.17;;;22.90;62.40;;;;;;5032218;28;20172;-70
2022/09/03 00:38:28;;;;;;;1.58;1.00;;;22.90;62.40;;;;;;5015494;28;20206;-70
2022/09/03 00:41:32;;;;;;;1.42;1.15;;;22.90;62.40;;;;;;5032737;28;20203;-70
2022/09/03 00:44:10;;;;;;;1.17;1.08;;;22.90;62.50;;;;;;5015973;28;20186;-70
2022/09/03 00:47:11;;;;;;;1.52;1.15;;;22.90;62.40;;;;;;5033171;28;20187;-70
2022/09/03 00:49:58;;;;;;;1.17;1.08;;;22.90;62.40;;;;;;5032673;28;20597;-70
2022/09/03 00:52:44;;;;;;;1.17;1.10;;;22.90;62.50;;;;;;5033964;28;20167;-69
2022/09/03 00:55:25;;;;;;;1.23;1.13;;;22.80;62.40;;;;;;5033263;28;20623;-70
2022/09/03 00:57:56;;;;;;;1.20;1.10;;;22.90;62.50;;;;;;5032747;28;20229;-70
2022/09/03 01:00:22;;;;;;;1.58;1.35;;;22.80;62.60;;;;;;5034114;28;20203;-70
2022/09/03 01:03:06;;;;;;;1.20;1.10;;;22.90;62.40;;;;;;5034120;28;20320;-70
2022/09/03 01:06:42;;;;;;;1.30;1.00;;;22.80;62.30;;;;;;5032064;28;20708;-70
2022/09/03 01:09:28;;;;;;;1.85;1.25;;;22.90;62.40;;;;;;4991879;28;20189;-69
2022/09/03 01:12:13;;;;;;;1.20;1.10;;;22.80;62.40;;;;;;4959543;28;20287;-70
2022/09/03 01:15:05;;;;;;;1.35;1.10;;;22.80;62.40;;;;;;5025198;28;20333;-70
2022/09/03 01:18:10;;;;;;;1.30;1.20;;;22.90;62.40;;;;;;5031841;28;20250;-70
2022/09/03 01:21:15;;;;;;;1.10;0.93;;;22.80;62.50;;;;;;5033009;28;20206;-70
2022/09/03 01:24:28;;;;;;;0.95;0.95;;;22.80;62.40;;;;;;5015688;28;20186;-70
2022/09/03 01:27:30;;;;;;;1.30;1.10;;;22.80;62.40;;;;;;5032254;28;20183;-69
2022/09/03 01:30:09;;;;;;;1.30;1.20;;;22.80;62.30;;;;;;5048743;28;20639;-70
2022/09/03 01:33:11;;;;;;;1.20;1.10;;;22.80;62.50;;;;;;5032266;28;20186;-70
2022/09/03 01:35:47;;;;;;;1.17;1.10;;;22.80;62.50;;;;;;5032447;28;20528;-70
2022/09/03 01:38:39;;;;;;;1.10;1.00;;;22.80;62.40;;;;;;5033593;28;20167;-70
2022/09/03 01:44:51;;;;;;;1.00;1.00;;;22.90;62.60;;;;;;5031351;28;20190;-70
2022/09/03 01:47:50;;;;;;;1.30;1.20;;;22.80;62.50;;;;;;5015362;28;20553;-70
2022/09/03 01:50:41;;;;;;;1.30;1.20;;;22.80;62.50;;;;;;5034075;28;20342;-70
2022/09/03 01:53:44;;;;;;;1.80;1.10;;;22.80;62.40;;;;;;5035637;28;20199;-70
2022/09/03 01:56:33;;;;;;;1.38;1.27;;;22.80;62.50;;;;;;5035285;28;20202;-70
2022/09/03 01:59:10;;;;;;;1.50;1.27;;;22.80;62.50;;;;;;5035444;28;20187;-70
2022/09/03 02:01:51;;;;;;;0.95;0.95;;;22.80;63.30;;;;;;5019181;28;20262;-70
2022/09/03 02:04:23;;;;;;;1.05;1.05;;;22.80;62.50;;;;;;5036037;28;20172;-69
2022/09/03 02:06:56;;;;;;;1.30;1.20;;;22.80;62.50;;;;;;5032896;28;20198;-70
2022/09/03 02:09:23;;;;;;;0.82;0.82;;;22.80;62.50;;;;;;5035167;28;20222;-70
2022/09/03 02:12:07;;;;;;;1.20;1.20;;;22.80;62.60;;;;;;5036660;28;20183;-70
2022/09/03 02:14:35;;;;;;;1.73;1.63;;;22.80;62.60;;;;;;5036012;28;20221;-69
2022/09/03 02:17:04;;;;;;;1.17;1.05;;;22.80;62.60;;;;;;5019063;28;20229;-70
2022/09/03 02:19:31;;;;;;;1.33;1.20;;;22.80;62.60;;;;;;5035381;28;20215;-70
2022/09/03 02:21:57;;;;;;;1.10;1.10;;;22.80;62.50;;;;;;5034909;28;20214;-70
2022/09/03 02:24:26;;;;;;;1.20;1.10;;;22.80;62.60;;;;;;5034950;28;20218;-70
2022/09/03 02:26:53;;;;;;;1.13;1.10;;;22.80;62.50;;;;;;5036023;28;20213;-70
2022/09/03 02:29:20;;;;;;;1.17;1.17;;;22.80;62.60;;;;;;5051751;28;20286;-70
2022/09/03 02:31:46;;;;;;;1.40;1.30;;;22.80;62.50;;;;;;5035200;28;20183;-70
2022/09/03 02:34:12;;;;;;;1.45;1.35;;;22.80;62.50;;;;;;5034656;28;20529;-70
2022/09/03 02:36:45;;;;;;;1.20;1.10;;;22.80;62.50;;;;;;5018599;28;20237;-70
2022/09/03 02:39:12;;;;;;;1.42;1.33;;;22.70;62.50;;;;;;5035003;28;20207;-70
2022/09/03 02:41:38;;;;;;;1.30;1.20;;;22.80;62.60;;;;;;5035150;28;20190;-70
2022/09/03 02:44:22;;;;;;;1.40;1.30;;;22.70;62.50;;;;;;5035872;28;20176;-70
2022/09/03 02:47:05;;;;;;;1.00;1.00;;;22.70;62.50;;;;;;5034743;28;20209;-70
2022/09/03 02:49:31;;;;;;;1.73;1.20;;;22.70;62.50;;;;;;5035579;28;20230;-70
2022/09/03 02:52:08;;;;;;;1.25;1.15;;;22.80;62.70;;;;;;5051497;28;20233;-70
2022/09/03 02:54:38;;;;;;;1.00;1.00;;;22.80;62.70;;;;;;5034264;28;20209;-70
2022/09/03 02:57:16;;;;;;;1.20;1.10;;;22.80;62.70;;;;;;5051102;28;20183;-70
2022/09/03 02:59:45;;;;;;;1.15;1.05;;;22.70;62.50;;;;;;5051186;28;20263;-70
2022/09/03 03:02:12;;;;;;;1.38;1.15;;;22.70;62.50;;;;;;5033286;28;20653;-70
2022/09/03 03:04:39;;;;;;;1.00;1.00;;;22.70;62.60;;;;;;5035114;28;20187;-70
2022/09/03 03:07:05;;;;;;;1.80;1.30;;;22.70;62.50;;;;;;5034695;28;20272;-70
2022/09/03 03:09:31;;;;;;;1.10;1.10;;;22.80;62.60;;;;;;5017823;28;20761;-70
2022/09/03 03:11:57;;;;;;;1.00;1.00;;;22.70;62.60;;;;;;5034396;28;20184;-70
2022/09/03 03:14:23;;;;;;;2.33;1.40;;;22.70;62.60;;;;;;5035449;28;20251;-70
2022/09/03 03:16:50;;;;;;;1.30;1.20;;;22.70;62.70;;;;;;5034864;28;20175;-70
2022/09/03 03:19:17;;;;;;;1.35;1.25;;;22.70;62.60;;;;;;5051246;28;20215;-70
2022/09/03 03:21:43;;;;;;;1.30;1.20;;;22.70;62.60;;;;;;5035439;28;20198;-70
2022/09/03 03:24:09;;;;;;;2.47;1.25;;;22.70;62.70;;;;;;5017893;28;20176;-70
2022/09/03 03:26:35;;;;;;;1.10;1.00;;;22.80;62.80;;;;;;5017597;28;20190;-70
2022/09/03 03:29:05;;;;;;;1.05;1.05;;;22.70;62.70;;;;;;5034222;28;20212;-70
2022/09/03 03:31:32;;;;;;;1.35;1.02;;;22.70;62.80;;;;;;5034319;28;20635;-70
2022/09/03 03:34:01;;;;;;;1.33;1.23;;;22.70;62.70;;;;;;5034157;28;20225;-70
2022/09/03 03:36:32;;;;;;;1.27;1.17;;;22.70;62.70;;;;;;5030220;28;20641;-70
2022/09/03 03:39:00;;;;;;;0.98;0.98;;;22.80;62.80;;;;;;5015506;28;20169;-70
2022/09/03 03:41:30;;;;;;;1.33;1.02;;;22.70;62.70;;;;;;5014056;28;20195;-70
2022/09/03 03:44:00;;;;;;;1.17;1.10;;;22.70;62.70;;;;;;5014328;28;20187;-70
2022/09/03 03:46:35;;;;;;;1.05;1.00;;;22.70;62.70;;;;;;5013391;28;20184;-70
2022/09/03 03:49:01;;;;;;;1.38;1.27;;;22.70;62.70;;;;;;5014051;28;20670;-70
2022/09/03 03:51:27;;;;;;;1.02;1.02;;;22.70;62.70;;;;;;5030582;28;20210;-70
2022/09/03 03:53:55;;;;;;;1.23;1.10;;;22.70;62.70;;;;;;5014559;28;20194;-70
2022/09/03 03:56:25;;;;;;;1.10;1.10;;;22.70;62.70;;;;;;5013731;28;20187;-70
2022/09/03 03:58:52;;;;;;;1.10;1.10;;;22.70;62.90;;;;;;5013976;28;20188;-70
2022/09/03 04:01:24;;;;;;;1.20;1.10;;;22.70;62.80;;;;;;5014300;28;20192;-70
2022/09/03 04:03:54;;;;;;;1.30;1.20;;;22.70;62.80;;;;;;5014056;28;20823;-70
2022/09/03 04:06:20;;;;;;;1.05;1.05;;;22.70;62.90;;;;;;5013433;28;20180;-70
2022/09/03 04:08:48;;;;;;;1.35;1.10;;;22.70;62.90;;;;;;5030971;28;20188;-69
2022/09/03 04:11:18;;;;;;;1.40;1.30;;;22.70;62.90;;;;;;5014411;28;20212;-70
2022/09/03 04:13:46;;;;;;;1.52;1.20;;;22.70;63.00;;;;;;5014866;28;20194;-70
2022/09/03 04:16:18;;;;;;;1.30;1.15;;;22.70;63.00;;;;;;5015449;28;20180;-71
2022/09/03 04:18:45;;;;;;;1.02;1.00;;;22.70;63.00;;;;;;5014385;28;20250;-70
2022/09/03 04:21:31;;;;;;;1.17;1.10;;;22.70;63.00;;;;;;5012837;28;20207;-70
2022/09/03 04:23:58;;;;;;;1.30;1.20;;;22.70;63.00;;;;;;5028316;28;20255;-70
2022/09/03 04:26:30;;;;;;;1.45;1.10;;;22.70;63.00;;;;;;5032890;28;20179;-69
2022/09/03 04:28:57;;;;;;;1.38;1.27;;;22.70;63.00;;;;;;5034706;28;20643;-70
2022/09/03 04:31:23;;;;;;;1.33;1.23;;;22.70;63.10;;;;;;5016751;28;20203;-70
2022/09/03 04:33:50;;;;;;;1.58;1.42;;;22.70;63.10;;;;;;5034164;28;20186;-70
2022/09/03 04:36:21;;;;;;;1.55;1.10;;;22.70;63.10;;;;;;5033443;28;20187;-69
2022/09/03 04:38:51;;;;;;;1.27;1.10;;;22.70;63.20;;;;;;5049117;28;20232;-70
2022/09/03 04:41:24;;;;;;;1.42;1.23;;;22.70;63.20;;;;;;5032644;28;20187;-70
2022/09/03 04:43:56;;;;;;;1.38;1.27;;;22.70;63.20;;;;;;5034349;28;20314;-70
2022/09/03 04:46:26;;;;;;;1.35;1.25;;;22.70;63.20;;;;;;5032627;28;20187;-70
2022/09/03 04:48:54;;;;;;;1.35;1.25;;;22.70;63.30;;;;;;5034271;28;20721;-69
2022/09/03 04:51:26;;;;;;;1.20;1.10;;;22.70;63.30;;;;;;5034312;28;20199;-70
2022/09/03 04:53:59;;;;;;;1.63;1.20;;;22.70;63.30;;;;;;5050303;28;20183;-70
2022/09/03 04:56:32;;;;;;;1.23;1.13;;;22.70;63.30;;;;;;5032750;28;20180;-70
2022/09/03 04:59:05;;;;;;;1.40;1.30;;;22.60;63.30;;;;;;5034361;28;20172;-69
2022/09/03 05:01:33;;;;;;;1.45;1.35;;;22.70;63.40;;;;;;5049510;28;20178;-69
2022/09/03 05:04:00;;;;;;;1.40;1.30;;;22.60;63.30;;;;;;5034171;28;20235;-69
2022/09/03 05:06:28;;;;;;;1.42;1.30;;;22.70;63.50;;;;;;5049424;28;20274;-69
2022/09/03 05:08:55;;;;;;;1.40;1.30;;;22.60;63.50;;;;;;5016779;28;20294;-70
2022/09/03 05:11:23;;;;;;;2.15;1.30;;;22.60;63.50;;;;;;5032871;28;20305;-70
2022/09/03 05:13:53;;;;;;;1.20;1.10;;;22.60;63.50;;;;;;5033661;28;20183;-69
2022/09/03 05:16:22;;;;;;;1.02;1.02;;;22.60;63.60;;;;;;5031911;28;20231;-69
2022/09/03 05:18:52;;;;;;;1.65;1.20;;;22.60;63.60;;;;;;5033664;28;20194;-69
2022/09/03 05:21:19;;;;;;;1.20;1.10;;;22.60;63.70;;;;;;5049286;28;20232;-69
2022/09/03 05:23:51;;;;;;;1.35;1.00;;;22.60;63.70;;;;;;5032317;28;20219;-69
2022/09/03 05:26:28;;;;;;;1.10;1.00;;;22.60;63.60;;;;;;5031349;28;20642;-70
2022/09/03 05:28:58;;;;;;;1.50;1.10;;;22.60;63.70;;;;;;5032582;28;20183;-69
2022/09/03 05:31:27;;;;;;;1.20;1.10;;;22.60;63.70;;;;;;5032402;28;20238;-69
2022/09/03 05:33:57;;;;;;;1.67;1.15;;;22.60;63.70;;;;;;5031943;28;20202;-69
2022/09/03 05:36:33;;;;;;;1.50;1.40;;;22.60;63.70;;;;;;5032382;28;20195;-69
2022/09/03 05:38:59;;;;;;;2.28;1.50;;;22.60;63.70;;;;;;5032909;28;20171;-69
2022/09/03 05:41:27;;;;;;;1.23;1.15;;;22.60;63.70;;;;;;5031848;28;20197;-69
2022/09/03 05:43:55;;;;;;;1.40;1.33;;;22.60;63.70;;;;;;5032254;28;20187;-69
2022/09/03 05:46:29;;;;;;;1.08;1.08;;;22.60;63.70;;;;;;5031867;28;20565;-69
2022/09/03 05:49:00;;;;;;;1.42;1.40;;;22.60;63.70;;;;;;5032173;28;20635;-69
2022/09/03 05:51:27;;;;;;;1.20;1.15;;;22.60;63.70;;;;;;5032456;28;20233;-69
2022/09/03 05:53:54;;;;;;;1.40;1.30;;;22.60;63.60;;;;;;5015671;28;20270;-69
2022/09/03 05:56:23;;;;;;;1.30;1.20;;;22.60;63.70;;;;;;5032207;28;20263;-69
2022/09/03 05:58:53;;;;;;;1.30;1.20;;;22.60;63.60;;;;;;5033541;28;20179;-69
2022/09/03 06:01:22;;;;;;;1.27;1.17;;;22.60;63.70;;;;;;5015758;28;20195;-69
2022/09/03 06:04:02;;;;;;;1.30;1.20;;;22.60;63.70;;;;;;5032312;28;20183;-69
2022/09/03 06:06:31;;;;;;;1.20;1.10;;;22.60;63.70;;;;;;5032359;28;20181;-69
2022/09/03 06:09:01;;;;;;;1.40;1.30;;;22.60;63.70;;;;;;5015419;28;20174;-69
2022/09/03 06:11:28;;;;;;;1.33;1.10;;;22.60;63.70;;;;;;5032309;28;20211;-69
2022/09/03 06:14:03;;;;;;;1.17;1.17;;;22.60;63.70;;;;;;5032503;28;20190;-70
2022/09/03 06:16:31;;;;;;;1.38;1.30;;;22.60;63.70;;;;;;5030865;28;20182;-70
2022/09/03 06:18:57;;;;;;;1.30;1.25;;;22.60;63.70;;;;;;5033731;28;20237;-69
2022/09/03 06:21:23;;;;;;;1.20;1.20;;;22.60;63.70;;;;;;5031899;28;20666;-70
2022/09/03 06:23:51;;;;;;;1.63;1.52;;;22.60;63.70;;;;;;5032479;28;20187;-69
2022/09/03 06:26:18;;;;;;;1.45;1.35;;;22.60;63.70;;;;;;5032377;28;20199;-70
2022/09/03 06:28:47;;;;;;;1.13;1.13;;;22.60;63.70;;;;;;5032341;28;20195;-70
2022/09/03 06:31:18;;;;;;;1.40;1.30;;;22.60;63.70;;;;;;5048612;28;20219;-70
2022/09/03 06:33:46;;;;;;;1.40;1.30;;;22.70;63.80;;;;;;5032024;28;20635;-70
2022/09/03 06:36:17;;;;;;;1.40;1.30;;;22.70;63.80;;;;;;5033467;28;20174;-70
2022/09/03 06:38:45;;;;;;;1.30;1.20;;;22.70;63.80;;;;;;5035309;28;20187;-70
2022/09/03 06:41:19;;;;;;;1.20;1.20;;;22.70;63.80;;;;;;5052366;28;20203;-70
2022/09/03 06:43:47;;;;;;;1.58;1.48;;;22.70;63.80;;;;;;5036966;28;20222;-70
2022/09/03 06:46:21;;;;;;;1.50;1.40;;;22.70;63.80;;;;;;5036064;28;20207;-70
2022/09/03 06:48:49;;;;;;;1.38;1.27;;;22.70;63.80;;;;;;5045586;28;20189;-70
2022/09/03 06:51:22;;;;;;;1.52;1.42;;;22.70;63.80;;;;;;5035696;28;20235;-70
2022/09/03 06:53:52;;;;;;;1.70;1.40;;;22.70;63.80;;;;;;5036081;28;20171;-71
2022/09/03 06:56:25;;;;;;;1.42;1.33;;;22.70;63.80;;;;;;5051645;28;20191;-70
2022/09/03 06:58:56;;;;;;;1.60;1.50;;;22.80;63.90;;;;;;5034733;28;20164;-69
2022/09/03 07:01:29;;;;;;;1.40;1.30;;;22.70;63.80;;;;;;5034633;28;20187;-69
2022/09/03 07:03:59;;;;;;;1.40;1.30;;;22.70;63.70;;;;;;5035433;28;20222;-69
2022/09/03 07:06:29;;;;;;;1.38;1.27;;;22.70;63.70;;;;;;5017107;28;20187;-69
2022/09/03 07:08:56;;;;;;;1.42;1.33;;;22.70;63.80;;;;;;5033828;28;20206;-70
2022/09/03 07:11:25;;;;;;;1.63;1.52;;;22.70;63.80;;;;;;5035000;28;20211;-70
2022/09/03 07:13:53;;;;;;;1.40;1.30;;;22.80;63.90;;;;;;5035247;28;20179;-69
2022/09/03 07:16:22;;;;;;;1.40;1.30;;;22.80;63.90;;;;;;5049898;28;20167;-69
2022/09/03 07:18:49;;;;;;;1.30;1.20;;;22.80;63.90;;;;;;5031009;28;20282;-70
2022/09/03 07:21:25;;;;;;;1.23;1.13;;;22.80;64.00;;;;;;5033895;28;20755;-70
2022/09/03 07:23:53;;;;;;;1.77;1.10;;;22.80;64.10;;;;;;5035158;28;20171;-70
2022/09/03 07:26:29;;;;;;;1.45;1.30;;;22.80;64.10;;;;;;5028553;28;20617;-70
2022/09/03 07:28:57;;;;;;;1.40;1.30;;;22.80;64.20;;;;;;5030460;28;20179;-69
2022/09/03 07:31:28;;;;;;;3.45;1.60;;;22.80;64.30;;;;;;5036720;28;20207;-71
2022/09/03 07:34:09;;;;;;;3.45;1.50;;;22.80;64.80;;;;;;5033027;28;20669;-71
2022/09/03 07:36:39;;;;;;;3.72;2.20;;;22.90;66.60;;;;;;5032882;28;20175;-72
2022/09/03 07:39:05;;;;;;;8.77;1.98;;;22.90;67.00;;;;;;5033202;28;20183;-71
2022/09/03 07:41:32;;;;;;;8.90;1.83;;;23.00;67.10;;;;;;5016690;28;20183;-71
2022/09/03 07:44:04;;;;;;;8.23;1.83;;;23.00;67.70;;;;;;5033078;28;20222;-71
2022/09/03 07:46:34;;;;;;;4.82;1.70;;;23.10;67.70;;;;;;5031802;28;20599;-71
2022/09/03 07:49:01;;;;;;;3.90;1.52;;;22.90;67.30;;;;;;5015710;28;20263;-71
2022/09/03 07:51:31;;;;;;;7.45;1.60;;;22.90;67.10;;;;;;5033772;28;20223;-70
2022/09/03 07:54:00;;;;;;;2.95;1.67;;;22.90;67.50;;;;;;5033071;28;20210;-71
2022/09/03 07:56:30;;;;;;;5.60;1.85;;;22.90;68.00;;;;;;5032936;28;20207;-70
2022/09/03 07:58:56;;;;;;;6.95;2.08;;;22.90;68.50;;;;;;5032125;28;20270;-70
2022/09/03 08:01:26;;;;;;;3.78;2.05;;;23.00;69.00;;;;;;5033380;28;20195;-71
2022/09/03 08:03:52;;;;;;;8.77;2.13;;;23.00;69.30;;;;;;5001867;28;20222;-72
2022/09/03 08:06:23;;;;;;;4.50;1.80;;;23.00;69.20;;;;;;5033769;28;20183;-71
2022/09/03 08:08:58;;;;;;;5.15;1.77;;;22.90;68.60;;;;;;5033307;28;20210;-70
2022/09/03 08:11:26;;;;;;;4.55;1.90;;;22.90;68.60;;;;;;5009189;28;20216;-70
2022/09/03 08:14:01;;;;;;;5.28;2.17;;;22.80;69.00;;;;;;5039750;28;20179;-70
2022/09/03 08:16:30;;;;;;;8.18;2.28;;;22.90;69.50;;;;;;5032240;28;20238;-71
2022/09/03 08:18:56;;;;;;;4.95;1.92;;;22.90;69.60;;;;;;5015778;28;20234;-70
2022/09/03 08:21:25;;;;;;;2.70;1.75;;;23.00;69.60;;;;;;5033784;28;20183;-71
2022/09/03 08:23:53;;;;;;;6.53;2.20;;;23.00;69.40;;;;;;5026862;28;20644;-70
2022/09/03 08:26:21;;;;;;;5.55;1.75;;;23.10;69.40;;;;;;5042993;28;20192;-71
2022/09/03 08:28:47;;;;;;;6.40;2.38;;;23.00;69.30;;;;;;5031963;28;20202;-71
2022/09/03 08:31:18;;;;;;;7.70;1.92;;;23.00;69.30;;;;;;5033195;28;20218;-71
2022/09/03 08:33:51;;;;;;;5.32;1.83;;;23.10;69.30;;;;;;5032391;28;20192;-71
2022/09/03 08:36:29;;;;;;;4.53;1.98;;;23.10;69.20;;;;;;5031961;28;20655;-71
2022/09/03 08:39:02;;;;;;;2.92;1.80;;;23.10;69.10;;;;;;5033098;28;20519;-71
2022/09/03 08:41:50;;;;;;;2.30;1.60;;;23.10;69.10;;;;;;5031500;28;20659;-71
2022/09/03 08:44:45;;;;;;;3.00;1.58;;;23.10;68.90;;;;;;5031959;28;20172;-71
2022/09/03 08:47:38;;;;;;;4.88;2.10;;;23.10;68.90;;;;;;5033138;28;20199;-71
2022/09/03 08:50:22;;;;;;;2.95;1.80;;;23.10;68.90;;;;;;5032848;28;20225;-70
2022/09/03 08:53:21;;;;;;;2.92;1.80;;;23.20;68.90;;;;;;5031838;28;20638;-71
2022/09/03 08:55:59;;;;;;;5.40;1.95;;;23.10;68.80;;;;;;5030200;28;20175;-70
2022/09/03 08:58:29;;;;;;;3.28;1.90;;;23.20;68.90;;;;;;5031490;28;20197;-71
2022/09/03 09:01:10;;;;;;;4.72;1.83;;;23.20;68.90;;;;;;5014547;28;20298;-71
2022/09/03 09:03:42;;;;;;;2.72;1.50;;;23.20;68.70;;;;;;5031612;28;20189;-71
2022/09/03 09:06:45;;;;;;;3.53;1.38;;;23.20;68.70;;;;;;5032071;28;20199;-71
2022/09/03 09:09:28;;;;;;;5.07;1.65;;;23.20;68.60;;;;;;5015313;28;20175;-71
2022/09/03 09:11:58;;;;;;;2.83;2.00;;;23.20;68.50;;;;;;5031031;28;20612;-71
2022/09/03 09:14:33;;;;;;;4.22;1.55;;;23.30;68.60;;;;;;5031483;28;20206;-71
2022/09/03 09:17:13;;;;;;;3.42;1.52;;;23.20;68.40;;;;;;5030830;28;20277;-71
2022/09/03 09:20:04;;;;;;;2.80;1.50;;;23.30;68.50;;;;;;5031391;28;20233;-71
2022/09/03 09:22:39;;;;;;;3.85;1.77;;;23.20;68.40;;;;;;5027795;28;20679;-71
2022/09/03 09:25:15;;;;;;;2.45;1.55;;;23.30;68.50;;;;;;5014074;28;20654;-70
2022/09/03 09:27:55;;;;;;;3.17;2.05;;;23.20;68.40;;;;;;5015005;28;20191;-71
2022/09/03 09:30:21;;;;;;;2.20;1.50;;;23.30;68.40;;;;;;5030878;28;20218;-70
2022/09/03 09:32:46;;;;;;;2.47;1.60;;;23.30;68.50;;;;;;5032538;28;20176;-71
2022/09/03 09:35:16;;;;;;;3.15;1.60;;;23.20;68.40;;;;;;5031867;28;20210;-71
2022/09/03 09:37:54;;;;;;;4.50;1.63;;;23.30;68.50;;;;;;5031179;28;20665;-70
2022/09/03 09:40:32;;;;;;;2.05;1.50;;;23.30;68.50;;;;;;5032184;28;20264;-70
2022/09/03 09:43:09;;;;;;;2.90;1.65;;;23.30;68.50;;;;;;5031139;28;20195;-71
2022/09/03 09:45:40;;;;;;;2.63;1.50;;;23.30;68.50;;;;;;5030686;28;20195;-71
2022/09/03 09:48:30;;;;;;;2.38;1.40;;;23.30;68.40;;;;;;5031108;28;20669;-72
2022/09/03 09:51:19;;;;;;;1.88;1.52;;;23.40;68.60;;;;;;5030970;28;20230;-71
2022/09/03 09:53:45;;;;;;;3.17;1.65;;;23.40;68.50;;;;;;5030967;28;20186;-71
2022/09/03 09:56:23;;;;;;;3.05;1.45;;;23.40;68.60;;;;;;5030024;28;20210;-71
2022/09/03 09:58:52;;;;;;;3.72;1.70;;;23.40;68.50;;;;;;5030790;28;20211;-70
2022/09/03 10:01:22;;;;;;;2.45;1.40;;;23.40;68.60;;;;;;5030795;28;20187;-71
2022/09/03 10:04:06;;;;;;;1.75;1.58;;;23.40;68.60;;;;;;5030788;28;20214;-71
2022/09/03 10:09:22;;;;;;;2.35;1.50;;;23.40;68.60;;;;;;5030716;28;20207;-71
2022/09/03 10:11:55;;;;;;;2.03;1.40;;;23.40;68.60;;;;;;5032413;28;20253;-71
2022/09/03 10:14:57;;;;;;;1.50;1.40;;;23.40;68.60;;;;;;5035165;28;20179;-71
2022/09/03 10:17:52;;;;;;;2.72;1.50;;;23.40;68.60;;;;;;5025612;28;20201;-71
2022/09/03 10:20:30;;;;;;;1.13;1.10;;;23.40;68.60;;;;;;5034559;28;20290;-70
2022/09/03 10:23:03;;;;;;;1.40;1.30;;;23.40;68.60;;;;;;5034788;28;20191;-71
2022/09/03 10:26:05;;;;;;;1.90;1.50;;;23.40;68.60;;;;;;5033432;28;20195;-70
2022/09/03 10:28:41;;;;;;;2.53;1.38;;;23.40;68.60;;;;;;5030427;28;20198;-71
2022/09/03 10:31:31;;;;;;;2.22;1.27;;;23.50;68.70;;;;;;5034432;28;20694;-71
2022/09/03 10:34:27;;;;;;;2.33;1.23;;;23.50;68.70;;;;;;5034917;28;20244;-71
2022/09/03 10:37:26;;;;;;;2.00;1.60;;;23.50;69.00;;;;;;5034127;28;20172;-71
2022/09/03 10:40:13;;;;;;;2.92;1.30;;;23.50;69.00;;;;;;5034125;28;20694;-70
2022/09/03 10:42:56;;;;;;;1.40;1.10;;;23.50;69.10;;;;;;5034157;28;20186;-71
2022/09/03 10:45:34;;;;;;;2.25;1.30;;;23.50;69.10;;;;;;5034899;28;20172;-71
2022/09/03 10:48:51;;;;;;;1.60;1.42;;;23.40;69.00;;;;;;5035274;28;20175;-71
2022/09/03 10:51:59;;;;;;;2.75;1.58;;;23.50;69.00;;;;;;5034019;28;20207;-71
2022/09/03 10:54:52;;;;;;;1.45;1.30;;;23.50;69.00;;;;;;5017904;28;20199;-71
2022/09/03 10:57:53;;;;;;;1.58;1.13;;;23.50;68.90;;;;;;5016981;28;20188;-71
2022/09/03 11:00:19;;;;;;;1.40;1.30;;;23.50;68.80;;;;;;5034217;28;20210;-71
2022/09/03 11:03:04;;;;;;;1.63;1.52;;;23.50;69.10;;;;;;5033864;28;20171;-71
2022/09/03 11:05:38;;;;;;;2.80;1.33;;;23.50;69.00;;;;;;5016855;28;20230;-70
2022/09/03 11:08:12;;;;;;;1.50;1.40;;;23.50;69.00;;;;;;5033913;28;20265;-71
2022/09/03 11:10:56;;;;;;;1.52;1.30;;;23.50;68.90;;;;;;5049965;28;20223;-71
2022/09/03 11:13:43;;;;;;;0.93;0.93;;;23.50;68.90;;;;;;5033808;28;20186;-71
2022/09/03 11:16:22;;;;;;;1.88;1.35;;;23.50;68.80;;;;;;5049688;28;20171;-71
2022/09/03 11:18:56;;;;;;;1.63;1.27;;;23.50;68.90;;;;;;5033628;28;20665;-71
2022/09/03 11:21:30;;;;;;;1.33;1.23;;;23.50;69.00;;;;;;5033364;28;20178;-71
2022/09/03 11:24:23;;;;;;;1.48;1.27;;;23.50;68.90;;;;;;5032673;28;20297;-71
2022/09/03 11:27:10;;;;;;;2.00;1.20;;;23.50;68.80;;;;;;5032456;28;20184;-71
2022/09/03 11:29:55;;;;;;;1.30;1.20;;;23.50;68.70;;;;;;5016856;28;20207;-71
2022/09/03 11:32:49;;;;;;;2.08;1.33;;;23.50;68.80;;;;;;5033628;28;20209;-71
2022/09/03 11:35:31;;;;;;;1.58;1.40;;;23.50;68.90;;;;;;5027517;28;20227;-71
2022/09/03 11:38:02;;;;;;;2.08;1.50;;;23.50;68.90;;;;;;5033537;28;20199;-71
2022/09/03 11:40:34;;;;;;;1.75;1.58;;;23.50;68.90;;;;;;5032886;28;20253;-71
2022/09/03 11:43:26;;;;;;;1.35;1.25;;;23.40;68.90;;;;;;5033472;28;20218;-71
2022/09/03 11:46:21;;;;;;;1.50;1.40;;;23.40;68.80;;;;;;5032524;28;20210;-71
2022/09/03 11:48:57;;;;;;;2.00;1.50;;;23.40;68.70;;;;;;5032910;28;20610;-71
2022/09/03 11:51:36;;;;;;;1.30;1.20;;;23.40;68.80;;;;;;5033203;28;20195;-71
2022/09/03 11:54:19;;;;;;;1.58;1.25;;;23.40;68.60;;;;;;5033141;28;20171;-71
2022/09/03 11:56:49;;;;;;;1.38;1.20;;;23.40;68.50;;;;;;5015562;28;20198;-70
2022/09/03 11:59:24;;;;;;;1.02;1.02;;;23.40;68.30;;;;;;5049802;28;20225;-71
2022/09/03 12:02:08;;;;;;;1.13;1.02;;;23.40;68.40;;;;;;5051061;28;20218;-71
2022/09/03 12:05:14;;;;;;;1.33;1.20;;;23.40;68.40;;;;;;5032491;28;20191;-70
2022/09/03 12:07:59;;;;;;;1.15;1.10;;;23.40;68.50;;;;;;5049433;28;20270;-71
2022/09/03 12:10:57;;;;;;;1.35;1.25;;;23.40;68.40;;;;;;5032441;28;20223;-71
2022/09/03 12:13:59;;;;;;;1.35;1.00;;;23.40;68.40;;;;;;5033003;28;20269;-71
2022/09/03 12:16:56;;;;;;;1.40;1.30;;;23.30;68.30;;;;;;5015474;28;20187;-71
2022/09/03 12:19:30;;;;;;;1.80;1.20;;;23.40;68.30;;;;;;5033499;28;20253;-71
2022/09/03 12:21:56;;;;;;;1.20;1.10;;;23.40;68.30;;;;;;5032895;28;20175;-71
2022/09/03 12:24:34;;;;;;;1.42;1.20;;;23.40;68.50;;;;;;5012305;28;20187;-71
2022/09/03 12:27:01;;;;;;;1.48;1.38;;;23.40;68.30;;;;;;5031621;28;20218;-71
2022/09/03 12:29:30;;;;;;;1.98;1.23;;;23.40;68.40;;;;;;5032086;28;20231;-71
2022/09/03 12:32:12;;;;;;;1.02;1.02;;;23.30;68.30;;;;;;5032326;28;20671;-71
2022/09/03 12:34:38;;;;;;;1.40;1.30;;;23.30;68.30;;;;;;5031908;28;20215;-71
2022/09/03 12:37:22;;;;;;;1.50;1.13;;;23.30;68.30;;;;;;5032811;28;20195;-71
2022/09/03 12:39:55;;;;;;;1.10;1.00;;;23.40;68.40;;;;;;5032255;28;20198;-70
2022/09/03 12:42:31;;;;;;;1.20;1.10;;;23.40;68.40;;;;;;5031895;28;20598;-71
2022/09/03 12:45:14;;;;;;;1.30;1.20;;;23.40;68.30;;;;;;5032168;28;20167;-70
2022/09/03 12:47:42;;;;;;;1.00;1.00;;;23.40;68.30;;;;;;5031836;28;20282;-72
2022/09/03 12:50:23;;;;;;;1.33;1.17;;;23.40;68.20;;;;;;5032917;28;20207;-71
2022/09/03 12:53:02;;;;;;;1.50;1.40;;;23.40;68.20;;;;;;5031979;28;20532;-71
2022/09/03 12:55:45;;;;;;;1.70;1.17;;;23.40;68.20;;;;;;5031160;28;20183;-70
2022/09/03 12:58:57;;;;;;;1.30;1.20;;;23.40;68.20;;;;;;5048303;28;20183;-70
2022/09/03 13:01:32;;;;;;;1.50;1.20;;;23.40;68.30;;;;;;4994544;28;20218;-71
2022/09/03 13:04:13;;;;;;;1.05;1.05;;;23.40;69.20;;;;;;5011088;28;20215;-71
2022/09/03 13:07:04;;;;;;;1.15;1.08;;;23.40;68.40;;;;;;5030963;28;20183;-71
2022/09/03 13:09:36;;;;;;;1.30;1.20;;;23.40;68.30;;;;;;5032720;28;20207;-71
2022/09/03 13:12:06;;;;;;;1.48;1.38;;;23.40;68.30;;;;;;5031536;28;20207;-71
2022/09/03 13:14:47;;;;;;;0.93;0.93;;;23.40;68.30;;;;;;5015547;28;20210;-71
2022/09/03 13:17:58;;;;;;;2.33;1.20;;;23.40;68.40;;;;;;5014745;28;20183;-71
2022/09/03 13:20:50;;;;;;;1.20;1.10;;;23.50;68.60;;;;;;5031738;28;20211;-70
2022/09/03 13:23:39;;;;;;;1.10;1.00;;;23.40;69.40;;;;;;5032903;28;20271;-70
2022/09/03 13:26:16;;;;;;;1.40;1.30;;;23.40;68.60;;;;;;5014235;28;20201;-71
2022/09/03 13:29:26;;;;;;;1.70;1.02;;;23.40;68.50;;;;;;5031114;28;20194;-71
2022/09/03 13:32:15;;;;;;;1.48;1.38;;;23.40;68.60;;;;;;5031210;28;20309;-70
2022/09/03 13:34:52;;;;;;;1.60;1.10;;;23.40;68.50;;;;;;5024706;28;20227;-71
2022/09/03 13:37:58;;;;;;;1.10;1.10;;;23.40;68.60;;;;;;5047220;28;20187;-71
2022/09/03 13:40:36;;;;;;;1.30;1.20;;;23.40;68.50;;;;;;5032378;28;20213;-71
2022/09/03 13:43:15;;;;;;;1.40;1.10;;;23.40;68.60;;;;;;5031242;28;20187;-70